sensor_id;sensor_type;location;lat;lon;timestamp;pressure;altitude;pressure_sealevel;temperature;humidity
50484;BME280;36409;52.168;20.878;2023-05-24T00:00:01;100099.48;;;16.92;48.71
50484;BME280;36409;52.168;20.878;2023-05-24T00:02:53;100094.37;;;16.89;48.69
50484;BME280;36409;52.168;20.878;2023-05-24T00:05:24;100095.29;;;16.88;48.46
50484;BME280;36409;52.168;20.878;2023-05-24T00:07:56;100091.86;;;16.86;48.42
50484;BME280;36409;52.168;20.878;2023-05-24T00:10:27;100094.63;;;16.82;48.71
50484;BME280;36409;52.168;20.878;2023-05-24T00:12:59;100094.70;;;16.81;48.64
50484;BME280;36409;52.168;20.878;2023-05-24T00:15:30;100089.48;;;16.79;49.02
50484;BME280;36409;52.168;20.878;2023-05-24T00:17:59;100090.41;;;16.78;48.88
50484;BME280;36409;52.168;20.878;2023-05-24T00:20:28;100082.66;;;16.75;49.00
50484;BME280;36409;52.168;20.878;2023-05-24T00:22:59;100078.31;;;16.74;49.06
50484;BME280;36409;52.168;20.878;2023-05-24T00:25:28;100082.78;;;16.72;48.99
50484;BME280;36409;52.168;20.878;2023-05-24T00:27:58;100079.31;;;16.72;48.84
50484;BME280;36409;52.168;20.878;2023-05-24T00:30:29;100075.92;;;16.68;48.74
50484;BME280;36409;52.168;20.878;2023-05-24T00:32:59;100072.45;;;16.67;48.76
50484;BME280;36409;52.168;20.878;2023-05-24T00:35:41;100076.92;;;16.65;49.06
50484;BME280;36409;52.168;20.878;2023-05-24T00:38:25;100069.02;;;16.65;48.76
50484;BME280;36409;52.168;20.878;2023-05-24T00:41:00;100077.80;;;16.66;49.29
50484;BME280;36409;52.168;20.878;2023-05-24T00:43:29;100074.21;;;16.67;49.42
50484;BME280;36409;52.168;20.878;2023-05-24T00:46:19;100073.38;;;16.66;49.45
50484;BME280;36409;52.168;20.878;2023-05-24T00:48:52;100080.44;;;16.66;49.21
50484;BME280;36409;52.168;20.878;2023-05-24T00:51:23;100077.80;;;16.66;49.06
50484;BME280;36409;52.168;20.878;2023-05-24T00:53:54;100073.38;;;16.66;48.99
50484;BME280;36409;52.168;20.878;2023-05-24T00:56:33;100071.66;;;16.65;48.68
50484;BME280;36409;52.168;20.878;2023-05-24T00:59:05;100067.39;;;16.63;49.32
50484;BME280;36409;52.168;20.878;2023-05-24T01:01:38;100076.21;;;16.62;49.02
50484;BME280;36409;52.168;20.878;2023-05-24T01:04:10;100071.07;;;16.59;49.32
50484;BME280;36409;52.168;20.878;2023-05-24T01:06:49;100075.50;;;16.58;49.16
50484;BME280;36409;52.168;20.878;2023-05-24T01:09:33;100073.78;;;16.57;49.12
50484;BME280;36409;52.168;20.878;2023-05-24T01:12:18;100072.91;;;16.57;49.09
50484;BME280;36409;52.168;20.878;2023-05-24T01:14:59;100079.97;;;16.56;49.17
50484;BME280;36409;52.168;20.878;2023-05-24T01:17:47;100074.78;;;16.55;49.18
50484;BME280;36409;52.168;20.878;2023-05-24T01:20:20;100071.40;;;16.51;49.15
50484;BME280;36409;52.168;20.878;2023-05-24T01:23:10;100078.46;;;16.50;49.02
50484;BME280;36409;52.168;20.878;2023-05-24T01:26:04;100078.46;;;16.50;49.29
50484;BME280;36409;52.168;20.878;2023-05-24T01:28:40;100076.75;;;16.49;49.08
50484;BME280;36409;52.168;20.878;2023-05-24T01:31:13;100080.30;;;16.48;48.85
50484;BME280;36409;52.168;20.878;2023-05-24T01:33:45;100077.79;;;16.45;49.38
50484;BME280;36409;52.168;20.878;2023-05-24T01:36:14;100082.22;;;16.45;49.45
50484;BME280;36409;52.168;20.878;2023-05-24T01:38:44;100077.07;;;16.42;49.25
50484;BME280;36409;52.168;20.878;2023-05-24T01:41:28;100085.05;;;16.40;49.37
50484;BME280;36409;52.168;20.878;2023-05-24T01:44:09;100074.64;;;16.37;49.72
50484;BME280;36409;52.168;20.878;2023-05-24T01:46:41;100081.70;;;16.36;49.90
50484;BME280;36409;52.168;20.878;2023-05-24T01:49:25;100082.66;;;16.34;48.91
50484;BME280;36409;52.168;20.878;2023-05-24T01:51:59;100086.22;;;16.33;49.17
50484;BME280;36409;52.168;20.878;2023-05-24T01:54:32;100081.10;;;16.30;49.67
50484;BME280;36409;52.168;20.878;2023-05-24T01:57:04;100082.94;;;16.28;49.24
50484;BME280;36409;52.168;20.878;2023-05-24T01:59:37;100076.88;;;16.26;49.62
50484;BME280;36409;52.168;20.878;2023-05-24T02:02:07;100083.02;;;16.26;49.11
50484;BME280;36409;52.168;20.878;2023-05-24T02:04:36;100074.36;;;16.23;49.57
50484;BME280;36409;52.168;20.878;2023-05-24T02:07:08;100082.42;;;16.19;49.63
50484;BME280;36409;52.168;20.878;2023-05-24T02:09:39;100078.98;;;16.17;49.67
50484;BME280;36409;52.168;20.878;2023-05-24T02:12:10;100083.45;;;16.15;49.54
50484;BME280;36409;52.168;20.878;2023-05-24T02:14:40;100090.55;;;16.13;49.77
50484;BME280;36409;52.168;20.878;2023-05-24T02:17:09;100083.65;;;16.11;50.16
50484;BME280;36409;52.168;20.878;2023-05-24T02:19:41;100082.85;;;16.09;49.91
50484;BME280;36409;52.168;20.878;2023-05-24T02:22:10;100087.39;;;16.05;49.31
50484;BME280;36409;52.168;20.878;2023-05-24T02:24:40;100083.96;;;16.03;50.36
50484;BME280;36409;52.168;20.878;2023-05-24T02:27:15;100081.41;;;16.01;49.90
50484;BME280;36409;52.168;20.878;2023-05-24T02:29:45;100078.81;;;16.00;49.78
50484;BME280;36409;52.168;20.878;2023-05-24T02:32:15;100085.00;;;15.99;49.51
50484;BME280;36409;52.168;20.878;2023-05-24T02:34:45;100084.23;;;15.97;50.31
50484;BME280;36409;52.168;20.878;2023-05-24T02:37:17;100080.80;;;15.95;49.66
50484;BME280;36409;52.168;20.878;2023-05-24T02:39:48;100087.89;;;15.93;50.31
50484;BME280;36409;52.168;20.878;2023-05-24T02:42:19;100081.83;;;15.90;50.30
50484;BME280;36409;52.168;20.878;2023-05-24T02:44:49;100083.63;;;15.90;50.42
50484;BME280;36409;52.168;20.878;2023-05-24T02:47:21;100084.53;;;15.89;49.76
50484;BME280;36409;52.168;20.878;2023-05-24T02:49:54;100090.72;;;15.88;49.96
50484;BME280;36409;52.168;20.878;2023-05-24T02:52:24;100085.53;;;15.86;50.14
50484;BME280;36409;52.168;20.878;2023-05-24T02:54:56;100090.07;;;15.81;50.19
50484;BME280;36409;52.168;20.878;2023-05-24T02:57:31;100089.27;;;15.79;49.88
50484;BME280;36409;52.168;20.878;2023-05-24T03:00:14;100094.61;;;15.78;50.12
50484;BME280;36409;52.168;20.878;2023-05-24T03:02:45;100091.11;;;15.77;50.60
50484;BME280;36409;52.168;20.878;2023-05-24T03:05:15;100093.73;;;15.77;50.14
50484;BME280;36409;52.168;20.878;2023-05-24T03:07:45;100100.78;;;15.77;50.13
50484;BME280;36409;52.168;20.878;2023-05-24T03:10:14;100099.00;;;15.77;50.55
50484;BME280;36409;52.168;20.878;2023-05-24T03:12:45;100104.26;;;15.77;50.32
50484;BME280;36409;52.168;20.878;2023-05-24T03:15:14;100101.70;;;15.75;50.16
50484;BME280;36409;52.168;20.878;2023-05-24T03:17:43;100111.38;;;15.75;50.83
50484;BME280;36409;52.168;20.878;2023-05-24T03:20:12;100101.81;;;15.72;50.29
50484;BME280;36409;52.168;20.878;2023-05-24T03:22:43;100112.34;;;15.72;50.27
50484;BME280;36409;52.168;20.878;2023-05-24T03:25:12;100110.58;;;15.73;50.15
50484;BME280;36409;52.168;20.878;2023-05-24T03:27:41;100110.58;;;15.73;50.59
50484;BME280;36409;52.168;20.878;2023-05-24T03:30:14;100114.05;;;15.73;50.67
50484;BME280;36409;52.168;20.878;2023-05-24T03:32:50;100112.34;;;15.72;50.58
50484;BME280;36409;52.168;20.878;2023-05-24T03:35:22;100112.34;;;15.72;50.83
50484;BME280;36409;52.168;20.878;2023-05-24T03:37:51;100113.25;;;15.71;50.06
50484;BME280;36409;52.168;20.878;2023-05-24T03:40:29;100110.70;;;15.70;50.14
50484;BME280;36409;52.168;20.878;2023-05-24T03:43:05;100115.16;;;15.68;51.18
50484;BME280;36409;52.168;20.878;2023-05-24T03:45:55;100112.52;;;15.68;50.86
50484;BME280;36409;52.168;20.878;2023-05-24T03:48:30;100110.77;;;15.68;51.07
50484;BME280;36409;52.168;20.878;2023-05-24T03:50:59;100120.38;;;15.69;51.00
50484;BME280;36409;52.168;20.878;2023-05-24T03:53:29;100116.76;;;15.72;51.29
50484;BME280;36409;52.168;20.878;2023-05-24T03:56:00;100128.89;;;15.76;50.65
50484;BME280;36409;52.168;20.878;2023-05-24T03:58:30;100125.20;;;15.80;50.83
50484;BME280;36409;52.168;20.878;2023-05-24T04:00:59;100125.00;;;15.86;51.02
50484;BME280;36409;52.168;20.878;2023-05-24T04:03:28;100130.00;;;15.93;50.89
50484;BME280;36409;52.168;20.878;2023-05-24T04:05:57;100123.52;;;16.01;50.81
50484;BME280;36409;52.168;20.878;2023-05-24T04:08:26;100129.20;;;16.13;51.22
50484;BME280;36409;52.168;20.878;2023-05-24T04:10:55;100125.45;;;16.18;51.23
50484;BME280;36409;52.168;20.878;2023-05-24T04:13:27;100130.34;;;16.28;51.13
50484;BME280;36409;52.168;20.878;2023-05-24T04:15:59;100133.38;;;16.39;50.74
50484;BME280;36409;52.168;20.878;2023-05-24T04:18:28;100133.78;;;16.50;51.47
50484;BME280;36409;52.168;20.878;2023-05-24T04:20:58;100135.89;;;16.63;50.86
50484;BME280;36409;52.168;20.878;2023-05-24T04:23:27;100139.76;;;16.75;51.25
50484;BME280;36409;52.168;20.878;2023-05-24T04:25:57;100146.29;;;16.87;51.20
50484;BME280;36409;52.168;20.878;2023-05-24T04:28:26;100146.63;;;17.00;50.73
50484;BME280;36409;52.168;20.878;2023-05-24T04:30:58;100148.72;;;17.12;50.81
50484;BME280;36409;52.168;20.878;2023-05-24T04:33:27;100149.72;;;17.28;50.92
50484;BME280;36409;52.168;20.878;2023-05-24T04:35:56;100153.67;;;17.39;50.35
50484;BME280;36409;52.168;20.878;2023-05-24T04:38:28;100152.94;;;17.54;50.28
50484;BME280;36409;52.168;20.878;2023-05-24T04:41:00;100148.89;;;17.66;50.04
50484;BME280;36409;52.168;20.878;2023-05-24T04:43:29;100156.28;;;17.77;49.98
50484;BME280;36409;52.168;20.878;2023-05-24T04:45:58;100151.98;;;17.94;49.69
50484;BME280;36409;52.168;20.878;2023-05-24T04:48:27;100156.50;;;18.63;49.36
50484;BME280;36409;52.168;20.878;2023-05-24T04:50:56;100153.75;;;19.00;48.97
50484;BME280;36409;52.168;20.878;2023-05-24T04:53:25;100148.95;;;21.25;48.15
50484;BME280;36409;52.168;20.878;2023-05-24T04:55:57;100147.81;;;23.81;46.46
50484;BME280;36409;52.168;20.878;2023-05-24T04:58:26;100145.32;;;25.43;45.41
50484;BME280;36409;52.168;20.878;2023-05-24T05:01:01;100153.77;;;24.69;44.87
50484;BME280;36409;52.168;20.878;2023-05-24T05:03:30;100152.23;;;26.01;43.36
50484;BME280;36409;52.168;20.878;2023-05-24T05:05:59;100150.35;;;26.45;42.89
50484;BME280;36409;52.168;20.878;2023-05-24T05:08:28;100155.37;;;27.43;42.02
50484;BME280;36409;52.168;20.878;2023-05-24T05:10:58;100168.83;;;27.22;41.19
50484;BME280;36409;52.168;20.878;2023-05-24T05:13:27;100165.82;;;26.42;40.99
50484;BME280;36409;52.168;20.878;2023-05-24T05:15:58;100166.81;;;26.83;40.24
50484;BME280;36409;52.168;20.878;2023-05-24T05:18:27;100175.97;;;27.93;39.03
50484;BME280;36409;52.168;20.878;2023-05-24T05:20:56;100168.31;;;29.24;38.00
50484;BME280;36409;52.168;20.878;2023-05-24T05:23:25;100170.55;;;29.39;37.78
50484;BME280;36409;52.168;20.878;2023-05-24T05:25:57;100171.19;;;29.13;37.59
50484;BME280;36409;52.168;20.878;2023-05-24T05:28:27;100175.64;;;28.94;36.96
50484;BME280;36409;52.168;20.878;2023-05-24T05:31:00;100179.66;;;28.02;37.27
50484;BME280;36409;52.168;20.878;2023-05-24T05:33:31;100174.41;;;28.00;36.55
50484;BME280;36409;52.168;20.878;2023-05-24T05:36:00;100173.52;;;29.36;35.44
50484;BME280;36409;52.168;20.878;2023-05-24T05:38:29;100174.12;;;30.84;34.92
50484;BME280;36409;52.168;20.878;2023-05-24T05:40:58;100184.05;;;32.12;34.36
50484;BME280;36409;52.168;20.878;2023-05-24T05:43:27;100176.84;;;33.35;33.01
50484;BME280;36409;52.168;20.878;2023-05-24T05:46:00;100173.89;;;34.08;32.18
50484;BME280;36409;52.168;20.878;2023-05-24T05:48:29;100183.35;;;34.89;31.38
50484;BME280;36409;52.168;20.878;2023-05-24T05:50:58;100188.53;;;35.14;30.58
50484;BME280;36409;52.168;20.878;2023-05-24T05:53:27;100185.39;;;35.62;30.10
50484;BME280;36409;52.168;20.878;2023-05-24T05:55:56;100183.95;;;35.44;29.76
50484;BME280;36409;52.168;20.878;2023-05-24T05:58:25;100181.86;;;35.61;29.33
50484;BME280;36409;52.168;20.878;2023-05-24T06:01:02;100193.84;;;35.89;28.90
50484;BME280;36409;52.168;20.878;2023-05-24T06:03:31;100202.37;;;34.04;29.60
50484;BME280;36409;52.168;20.878;2023-05-24T06:06:00;100203.70;;;31.71;29.71
50484;BME280;36409;52.168;20.878;2023-05-24T06:08:29;100208.97;;;29.77;30.27
50484;BME280;36409;52.168;20.878;2023-05-24T06:11:01;100210.88;;;28.32;31.35
50484;BME280;36409;52.168;20.878;2023-05-24T06:13:30;100220.00;;;27.90;31.47
50484;BME280;36409;52.168;20.878;2023-05-24T06:16:00;100218.45;;;28.96;31.17
50484;BME280;36409;52.168;20.878;2023-05-24T06:18:29;100209.13;;;29.48;30.92
50484;BME280;36409;52.168;20.878;2023-05-24T06:20:59;100213.78;;;29.08;31.16
50484;BME280;36409;52.168;20.878;2023-05-24T06:23:28;100219.48;;;28.85;30.96
50484;BME280;36409;52.168;20.878;2023-05-24T06:25:58;100221.59;;;28.62;30.80
50484;BME280;36409;52.168;20.878;2023-05-24T06:28:29;100232.03;;;27.55;31.68
50484;BME280;36409;52.168;20.878;2023-05-24T06:31:00;100235.18;;;26.87;32.49
50484;BME280;36409;52.168;20.878;2023-05-24T06:33:30;100243.64;;;26.39;32.52
50484;BME280;36409;52.168;20.878;2023-05-24T06:35:59;100244.09;;;26.00;33.55
50484;BME280;36409;52.168;20.878;2023-05-24T06:38:29;100251.16;;;25.89;33.52
50484;BME280;36409;52.168;20.878;2023-05-24T06:41:00;100249.25;;;25.57;33.77
50484;BME280;36409;52.168;20.878;2023-05-24T06:43:29;100250.05;;;25.24;33.95
50484;BME280;36409;52.168;20.878;2023-05-24T06:46:01;100262.77;;;25.09;34.58
50484;BME280;36409;52.168;20.878;2023-05-24T06:48:30;100256.57;;;24.97;34.55
50484;BME280;36409;52.168;20.878;2023-05-24T06:50:59;100260.63;;;24.78;34.53
50484;BME280;36409;52.168;20.878;2023-05-24T06:53:28;100262.83;;;24.60;34.68
50484;BME280;36409;52.168;20.878;2023-05-24T06:56:00;100265.45;;;24.49;35.04
50484;BME280;36409;52.168;20.878;2023-05-24T06:58:29;100272.22;;;24.42;35.10
50484;BME280;36409;52.168;20.878;2023-05-24T07:01:02;100269.62;;;24.29;35.58
50484;BME280;36409;52.168;20.878;2023-05-24T07:03:32;100272.89;;;24.08;35.45
50484;BME280;36409;52.168;20.878;2023-05-24T07:06:01;100266.91;;;24.04;35.89
50484;BME280;36409;52.168;20.878;2023-05-24T07:08:31;100266.41;;;23.99;36.14
50484;BME280;36409;52.168;20.878;2023-05-24T07:11:02;100278.44;;;24.05;36.03
50484;BME280;36409;52.168;20.878;2023-05-24T07:13:31;100276.73;;;24.04;36.07
50484;BME280;36409;52.168;20.878;2023-05-24T07:16:03;100275.25;;;23.87;36.34
50484;BME280;36409;52.168;20.878;2023-05-24T07:18:32;100282.28;;;23.88;36.39
50484;BME280;36409;52.168;20.878;2023-05-24T07:21:01;100289.86;;;23.81;36.26
50484;BME280;36409;52.168;20.878;2023-05-24T07:23:30;100288.28;;;23.79;36.87
50484;BME280;36409;52.168;20.878;2023-05-24T07:25:59;100296.60;;;23.74;36.28
50484;BME280;36409;52.168;20.878;2023-05-24T07:28:28;100295.64;;;23.75;36.72
50484;BME280;36409;52.168;20.878;2023-05-24T07:31:00;100302.34;;;23.68;36.46
50484;BME280;36409;52.168;20.878;2023-05-24T07:33:32;100298.84;;;23.67;37.04
50484;BME280;36409;52.168;20.878;2023-05-24T07:36:02;100304.38;;;23.64;36.93
50484;BME280;36409;52.168;20.878;2023-05-24T07:38:32;100299.68;;;23.68;36.73
50484;BME280;36409;52.168;20.878;2023-05-24T07:41:02;100312.68;;;23.85;37.35
50484;BME280;36409;52.168;20.878;2023-05-24T07:43:32;100308.60;;;23.93;37.43
50484;BME280;36409;52.168;20.878;2023-05-24T07:46:01;100311.38;;;24.04;37.06
50484;BME280;36409;52.168;20.878;2023-05-24T07:48:30;100318.28;;;24.19;36.94
50484;BME280;36409;52.168;20.878;2023-05-24T07:50:58;100313.21;;;24.03;37.23
50484;BME280;36409;52.168;20.878;2023-05-24T07:53:28;100320.22;;;24.04;36.88
50484;BME280;36409;52.168;20.878;2023-05-24T07:55:57;100322.45;;;24.11;37.19
50484;BME280;36409;52.168;20.878;2023-05-24T07:58:29;100324.33;;;24.21;37.17
50484;BME280;36409;52.168;20.878;2023-05-24T08:01:02;100328.56;;;24.37;37.64
50484;BME280;36409;52.168;20.878;2023-05-24T08:03:31;100336.63;;;24.48;37.25
50484;BME280;36409;52.168;20.878;2023-05-24T08:06:00;100331.91;;;24.52;37.69
50484;BME280;36409;52.168;20.878;2023-05-24T08:08:29;100333.89;;;24.61;37.66
50484;BME280;36409;52.168;20.878;2023-05-24T08:10:58;100335.94;;;24.71;37.77
50484;BME280;36409;52.168;20.878;2023-05-24T08:13:26;100330.88;;;24.66;37.26
50484;BME280;36409;52.168;20.878;2023-05-24T08:16:01;100334.36;;;24.55;37.24
50484;BME280;36409;52.168;20.878;2023-05-24T08:18:30;100339.23;;;24.61;37.01
50484;BME280;36409;52.168;20.878;2023-05-24T08:21:00;100338.70;;;24.69;37.11
50484;BME280;36409;52.168;20.878;2023-05-24T08:23:30;100341.64;;;24.77;37.27
50484;BME280;36409;52.168;20.878;2023-05-24T08:25:59;100333.63;;;24.77;37.50
50484;BME280;36409;52.168;20.878;2023-05-24T08:28:28;100336.87;;;24.94;37.18
50484;BME280;36409;52.168;20.878;2023-05-24T08:30:59;100347.72;;;25.04;37.63
50484;BME280;36409;52.168;20.878;2023-05-24T08:33:28;100340.67;;;25.03;37.36
50484;BME280;36409;52.168;20.878;2023-05-24T08:35:58;100346.84;;;25.03;37.29
50484;BME280;36409;52.168;20.878;2023-05-24T08:38:28;100348.42;;;25.06;37.74
50484;BME280;36409;52.168;20.878;2023-05-24T08:40:56;100348.68;;;25.03;38.01
50484;BME280;36409;52.168;20.878;2023-05-24T08:43:26;100351.57;;;25.00;37.71
50484;BME280;36409;52.168;20.878;2023-05-24T08:46:01;100353.53;;;24.73;37.70
50484;BME280;36409;52.168;20.878;2023-05-24T08:48:32;100356.33;;;24.59;37.55
50484;BME280;36409;52.168;20.878;2023-05-24T08:51:03;100353.09;;;24.42;38.42
50484;BME280;36409;52.168;20.878;2023-05-24T08:53:36;100359.06;;;24.33;38.44
50484;BME280;36409;52.168;20.878;2023-05-24T08:56:07;100362.86;;;24.17;38.60
50484;BME280;36409;52.168;20.878;2023-05-24T08:58:38;100358.40;;;24.05;38.23
50484;BME280;36409;52.168;20.878;2023-05-24T09:01:09;100365.52;;;23.91;38.60
50484;BME280;36409;52.168;20.878;2023-05-24T09:03:40;100366.59;;;23.76;38.51
50484;BME280;36409;52.168;20.878;2023-05-24T09:06:10;100367.35;;;23.65;38.81
50484;BME280;36409;52.168;20.878;2023-05-24T09:08:41;100366.37;;;23.53;38.70
50484;BME280;36409;52.168;20.878;2023-05-24T09:11:15;100372.56;;;23.41;39.34
50484;BME280;36409;52.168;20.878;2023-05-24T09:13:45;100378.72;;;23.28;39.56
50484;BME280;36409;52.168;20.878;2023-05-24T09:16:15;100379.98;;;23.23;39.52
50484;BME280;36409;52.168;20.878;2023-05-24T09:18:44;100375.90;;;23.17;39.78
50484;BME280;36409;52.168;20.878;2023-05-24T09:21:13;100376.73;;;23.18;39.52
50484;BME280;36409;52.168;20.878;2023-05-24T09:23:42;100380.19;;;23.20;39.66
50484;BME280;36409;52.168;20.878;2023-05-24T09:26:12;100382.93;;;23.18;39.75
50484;BME280;36409;52.168;20.878;2023-05-24T09:28:41;100381.70;;;23.24;39.98
50484;BME280;36409;52.168;20.878;2023-05-24T09:31:11;100382.11;;;23.31;39.98
50484;BME280;36409;52.168;20.878;2023-05-24T09:33:41;100388.74;;;23.38;40.23
50484;BME280;36409;52.168;20.878;2023-05-24T09:36:10;100392.05;;;23.41;40.42
50484;BME280;36409;52.168;20.878;2023-05-24T09:38:39;100393.23;;;23.50;40.51
50484;BME280;36409;52.168;20.878;2023-05-24T09:41:09;100391.84;;;23.57;40.15
50484;BME280;36409;52.168;20.878;2023-05-24T09:43:48;100397.48;;;23.66;40.51
50484;BME280;36409;52.168;20.878;2023-05-24T09:46:21;100399.31;;;23.78;40.72
50484;BME280;36409;52.168;20.878;2023-05-24T09:48:57;100398.25;;;23.94;40.08
50484;BME280;36409;52.168;20.878;2023-05-24T09:51:26;100404.79;;;24.02;39.98
50484;BME280;36409;52.168;20.878;2023-05-24T09:53:57;100401.38;;;24.00;40.42
50484;BME280;36409;52.168;20.878;2023-05-24T09:56:29;100406.70;;;24.00;39.90
50484;BME280;36409;52.168;20.878;2023-05-24T09:58:58;100405.84;;;24.00;40.36
50484;BME280;36409;52.168;20.878;2023-05-24T10:01:33;100404.79;;;24.02;39.77
50484;BME280;36409;52.168;20.878;2023-05-24T10:04:03;100407.88;;;24.09;39.73
50484;BME280;36409;52.168;20.878;2023-05-24T10:06:39;100406.68;;;24.13;40.18
50484;BME280;36409;52.168;20.878;2023-05-24T10:09:10;100404.77;;;24.15;39.99
50484;BME280;36409;52.168;20.878;2023-05-24T10:11:41;100413.30;;;24.20;39.83
50484;BME280;36409;52.168;20.878;2023-05-24T10:14:12;100415.22;;;24.18;39.42
50484;BME280;36409;52.168;20.878;2023-05-24T10:16:42;100411.27;;;24.24;40.18
50484;BME280;36409;52.168;20.878;2023-05-24T10:19:11;100412.31;;;24.34;40.23
50484;BME280;36409;52.168;20.878;2023-05-24T10:21:41;100409.27;;;24.52;40.11
50484;BME280;36409;52.168;20.878;2023-05-24T10:24:12;100411.26;;;24.61;39.63
50484;BME280;36409;52.168;20.878;2023-05-24T10:26:41;100411.61;;;24.70;40.14
50484;BME280;36409;52.168;20.878;2023-05-24T10:29:23;100405.06;;;24.74;40.04
50484;BME280;36409;52.168;20.878;2023-05-24T10:31:55;100411.02;;;24.77;39.60
50484;BME280;36409;52.168;20.878;2023-05-24T10:34:25;100412.91;;;24.88;39.92
50484;BME280;36409;52.168;20.878;2023-05-24T10:36:55;100412.84;;;25.01;40.08
50484;BME280;36409;52.168;20.878;2023-05-24T10:39:26;100411.83;;;25.15;40.01
50484;BME280;36409;52.168;20.878;2023-05-24T10:41:56;100410.61;;;25.19;39.88
50484;BME280;36409;52.168;20.878;2023-05-24T10:44:28;100408.50;;;25.36;39.52
50484;BME280;36409;52.168;20.878;2023-05-24T10:47:08;100409.17;;;25.51;40.01
50484;BME280;36409;52.168;20.878;2023-05-24T10:49:46;100409.81;;;25.66;39.90
50484;BME280;36409;52.168;20.878;2023-05-24T10:52:15;100410.20;;;25.84;39.88
50484;BME280;36409;52.168;20.878;2023-05-24T10:55:05;100418.60;;;26.02;39.79
50484;BME280;36409;52.168;20.878;2023-05-24T10:57:38;100420.80;;;26.31;39.71
50484;BME280;36409;52.168;20.878;2023-05-24T11:03:01;100422.25;;;27.13;39.37
50484;BME280;36409;52.168;20.878;2023-05-24T11:05:35;100422.14;;;27.36;39.00
50484;BME280;36409;52.168;20.878;2023-05-24T11:08:06;100429.64;;;27.42;38.64
50484;BME280;36409;52.168;20.878;2023-05-24T11:10:36;100423.47;;;27.63;38.74
50484;BME280;36409;52.168;20.878;2023-05-24T11:13:08;100427.44;;;27.89;38.89
50484;BME280;36409;52.168;20.878;2023-05-24T11:15:38;100419.97;;;28.14;38.79
50484;BME280;36409;52.168;20.878;2023-05-24T11:18:14;100422.77;;;28.13;38.01
50484;BME280;36409;52.168;20.878;2023-05-24T11:20:44;100422.36;;;28.17;37.90
50484;BME280;36409;52.168;20.878;2023-05-24T11:23:15;100424.94;;;28.29;37.82
50484;BME280;36409;52.168;20.878;2023-05-24T11:25:44;100430.66;;;28.45;37.73
50484;BME280;36409;52.168;20.878;2023-05-24T11:28:14;100426.16;;;28.65;37.33
50484;BME280;36409;52.168;20.878;2023-05-24T11:30:46;100418.34;;;28.93;37.50
50484;BME280;36409;52.168;20.878;2023-05-24T11:33:16;100420.88;;;29.24;37.09
50484;BME280;36409;52.168;20.878;2023-05-24T11:35:49;100419.64;;;29.38;37.00
50484;BME280;36409;52.168;20.878;2023-05-24T11:38:20;100413.80;;;29.53;36.78
50484;BME280;36409;52.168;20.878;2023-05-24T11:40:52;100412.19;;;29.80;36.61
50484;BME280;36409;52.168;20.878;2023-05-24T11:43:24;100414.55;;;30.02;36.68
50484;BME280;36409;52.168;20.878;2023-05-24T11:45:59;100412.30;;;30.26;36.54
50484;BME280;36409;52.168;20.878;2023-05-24T11:48:29;100411.41;;;30.35;36.19
50484;BME280;36409;52.168;20.878;2023-05-24T11:50:58;100410.73;;;30.33;36.07
50484;BME280;36409;52.168;20.878;2023-05-24T11:53:27;100404.23;;;30.26;35.89
50484;BME280;36409;52.168;20.878;2023-05-24T11:55:57;100406.13;;;30.15;35.27
50484;BME280;36409;52.168;20.878;2023-05-24T11:58:31;100401.45;;;30.17;35.40
50484;BME280;36409;52.168;20.878;2023-05-24T12:01:01;100408.53;;;30.18;35.23
50484;BME280;36409;52.168;20.878;2023-05-24T12:03:32;100407.38;;;30.21;35.26
50484;BME280;36409;52.168;20.878;2023-05-24T12:06:01;100407.88;;;30.34;35.59
50484;BME280;36409;52.168;20.878;2023-05-24T12:08:30;100409.41;;;30.37;35.25
50484;BME280;36409;52.168;20.878;2023-05-24T12:10:59;100403.98;;;30.47;35.40
50484;BME280;36409;52.168;20.878;2023-05-24T12:13:30;100398.88;;;30.54;35.17
50484;BME280;36409;52.168;20.878;2023-05-24T12:16:02;100403.64;;;30.60;34.84
50484;BME280;36409;52.168;20.878;2023-05-24T12:18:32;100398.50;;;30.66;34.62
50484;BME280;36409;52.168;20.878;2023-05-24T12:21:08;100400.82;;;30.61;34.63
50484;BME280;36409;52.168;20.878;2023-05-24T12:23:37;100397.56;;;30.58;34.32
50484;BME280;36409;52.168;20.878;2023-05-24T12:26:07;100406.02;;;30.35;34.08
50484;BME280;36409;52.168;20.878;2023-05-24T12:28:37;100399.02;;;30.24;34.22
50484;BME280;36409;52.168;20.878;2023-05-24T12:31:07;100402.20;;;30.38;34.49
50484;BME280;36409;52.168;20.878;2023-05-24T12:33:36;100396.45;;;30.50;34.42
50484;BME280;36409;52.168;20.878;2023-05-24T12:36:07;100401.41;;;30.27;33.87
50484;BME280;36409;52.168;20.878;2023-05-24T12:38:37;100399.50;;;30.10;34.33
50484;BME280;36409;52.168;20.878;2023-05-24T12:41:07;100397.41;;;30.03;34.51
50484;BME280;36409;52.168;20.878;2023-05-24T12:43:42;100396.42;;;30.04;34.73
50484;BME280;36409;52.168;20.878;2023-05-24T12:46:12;100396.44;;;29.85;34.24
50484;BME280;36409;52.168;20.878;2023-05-24T12:48:41;100393.38;;;29.70;34.56
50484;BME280;36409;52.168;20.878;2023-05-24T12:51:10;100395.69;;;29.55;34.82
50484;BME280;36409;52.168;20.878;2023-05-24T12:53:39;100402.50;;;29.39;34.87
50484;BME280;36409;52.168;20.878;2023-05-24T12:56:08;100407.18;;;29.08;34.63
50484;BME280;36409;52.168;20.878;2023-05-24T12:58:37;100400.66;;;28.81;35.01
50484;BME280;36409;52.168;20.878;2023-05-24T13:01:06;100407.97;;;28.69;35.34
50484;BME280;36409;52.168;20.878;2023-05-24T13:03:35;100407.88;;;28.80;35.55